sensor_id;sensor_type;location;lat;lon;timestamp;P1;durP1;ratioP1;P2;durP2;ratioP2
77518;SDS011;66629;47.346;19.038;2023-03-14T00:00:08;11.88;;;6.80;;
77518;SDS011;66629;47.346;19.038;2023-03-14T00:02:36;11.80;;;6.40;;
77518;SDS011;66629;47.346;19.038;2023-03-14T00:05:02;12.68;;;7.38;;
77518;SDS011;66629;47.346;19.038;2023-03-14T00:07:31;12.27;;;6.25;;
77518;SDS011;66629;47.346;19.038;2023-03-14T00:10:00;9.05;;;5.50;;
77518;SDS011;66629;47.346;19.038;2023-03-14T00:12:29;10.65;;;5.95;;
77518;SDS011;66629;47.346;19.038;2023-03-14T00:14:54;11.95;;;6.55;;
77518;SDS011;66629;47.346;19.038;2023-03-14T00:17:20;10.35;;;6.88;;
77518;SDS011;66629;47.346;19.038;2023-03-14T00:19:45;11.30;;;6.07;;
77518;SDS011;66629;47.346;19.038;2023-03-14T00:22:11;12.75;;;7.20;;
77518;SDS011;66629;47.346;19.038;2023-03-14T00:24:36;11.77;;;6.15;;
77518;SDS011;66629;47.346;19.038;2023-03-14T00:27:01;9.38;;;5.75;;
77518;SDS011;66629;47.346;19.038;2023-03-14T00:29:27;13.80;;;6.85;;
77518;SDS011;66629;47.346;19.038;2023-03-14T00:31:52;10.23;;;6.60;;
77518;SDS011;66629;47.346;19.038;2023-03-14T00:34:18;11.02;;;6.55;;
77518;SDS011;66629;47.346;19.038;2023-03-14T00:36:44;11.32;;;6.60;;
77518;SDS011;66629;47.346;19.038;2023-03-14T00:39:10;12.90;;;6.25;;
77518;SDS011;66629;47.346;19.038;2023-03-14T00:41:35;11.73;;;6.68;;
77518;SDS011;66629;47.346;19.038;2023-03-14T00:44:00;12.18;;;6.60;;
77518;SDS011;66629;47.346;19.038;2023-03-14T00:46:26;10.00;;;6.50;;
77518;SDS011;66629;47.346;19.038;2023-03-14T00:48:51;11.00;;;6.80;;
77518;SDS011;66629;47.346;19.038;2023-03-14T00:51:17;9.98;;;6.32;;
77518;SDS011;66629;47.346;19.038;2023-03-14T00:53:42;10.10;;;7.53;;
77518;SDS011;66629;47.346;19.038;2023-03-14T00:56:09;12.35;;;7.75;;
77518;SDS011;66629;47.346;19.038;2023-03-14T00:58:36;10.90;;;7.05;;
77518;SDS011;66629;47.346;19.038;2023-03-14T01:01:09;10.10;;;6.70;;
77518;SDS011;66629;47.346;19.038;2023-03-14T01:03:37;13.18;;;7.28;;
77518;SDS011;66629;47.346;19.038;2023-03-14T01:06:15;12.25;;;7.63;;
77518;SDS011;66629;47.346;19.038;2023-03-14T01:08:43;11.13;;;6.50;;
77518;SDS011;66629;47.346;19.038;2023-03-14T01:11:10;11.73;;;6.82;;
77518;SDS011;66629;47.346;19.038;2023-03-14T01:13:38;10.57;;;6.25;;
77518;SDS011;66629;47.346;19.038;2023-03-14T01:16:05;10.18;;;6.38;;
77518;SDS011;66629;47.346;19.038;2023-03-14T01:18:33;10.90;;;6.95;;
77518;SDS011;66629;47.346;19.038;2023-03-14T01:21:00;11.88;;;7.68;;
77518;SDS011;66629;47.346;19.038;2023-03-14T01:23:27;12.73;;;7.50;;
77518;SDS011;66629;47.346;19.038;2023-03-14T01:25:53;11.25;;;7.65;;
77518;SDS011;66629;47.346;19.038;2023-03-14T01:28:18;12.73;;;8.02;;
77518;SDS011;66629;47.346;19.038;2023-03-14T01:30:43;11.75;;;7.82;;
77518;SDS011;66629;47.346;19.038;2023-03-14T01:33:09;11.35;;;7.45;;
77518;SDS011;66629;47.346;19.038;2023-03-14T01:35:36;11.23;;;7.03;;
77518;SDS011;66629;47.346;19.038;2023-03-14T01:38:01;14.60;;;7.60;;
77518;SDS011;66629;47.346;19.038;2023-03-14T01:40:27;14.10;;;7.78;;
77518;SDS011;66629;47.346;19.038;2023-03-14T01:42:56;13.13;;;7.85;;
77518;SDS011;66629;47.346;19.038;2023-03-14T01:48:26;15.57;;;7.68;;
77518;SDS011;66629;47.346;19.038;2023-03-14T01:50:56;13.02;;;7.70;;
77518;SDS011;66629;47.346;19.038;2023-03-14T01:53:22;13.43;;;8.18;;
77518;SDS011;66629;47.346;19.038;2023-03-14T01:55:48;13.70;;;6.68;;
77518;SDS011;66629;47.346;19.038;2023-03-14T01:58:15;10.57;;;6.90;;
77518;SDS011;66629;47.346;19.038;2023-03-14T02:00:42;11.77;;;7.40;;
77518;SDS011;66629;47.346;19.038;2023-03-14T02:03:13;12.35;;;7.65;;
77518;SDS011;66629;47.346;19.038;2023-03-14T02:05:40;11.70;;;7.22;;
77518;SDS011;66629;47.346;19.038;2023-03-14T02:08:08;10.38;;;6.57;;
77518;SDS011;66629;47.346;19.038;2023-03-14T02:10:40;15.93;;;8.63;;
77518;SDS011;66629;47.346;19.038;2023-03-14T02:13:08;11.98;;;7.35;;
77518;SDS011;66629;47.346;19.038;2023-03-14T02:15:36;15.63;;;8.18;;
77518;SDS011;66629;47.346;19.038;2023-03-14T02:18:03;11.15;;;6.63;;
77518;SDS011;66629;47.346;19.038;2023-03-14T02:23:18;9.60;;;6.65;;
77518;SDS011;66629;47.346;19.038;2023-03-14T02:25:57;10.73;;;6.95;;
77518;SDS011;66629;47.346;19.038;2023-03-14T02:28:26;12.30;;;8.02;;
77518;SDS011;66629;47.346;19.038;2023-03-14T02:30:51;9.57;;;6.43;;
77518;SDS011;66629;47.346;19.038;2023-03-14T02:33:17;11.05;;;7.25;;
77518;SDS011;66629;47.346;19.038;2023-03-14T02:35:50;11.55;;;5.90;;
77518;SDS011;66629;47.346;19.038;2023-03-14T02:38:22;8.18;;;5.60;;
77518;SDS011;66629;47.346;19.038;2023-03-14T02:40:52;11.82;;;6.97;;
77518;SDS011;66629;47.346;19.038;2023-03-14T02:43:18;11.48;;;7.28;;
77518;SDS011;66629;47.346;19.038;2023-03-14T02:45:45;12.30;;;7.47;;
77518;SDS011;66629;47.346;19.038;2023-03-14T02:50:49;9.43;;;5.43;;
77518;SDS011;66629;47.346;19.038;2023-03-14T02:53:18;11.82;;;6.13;;
77518;SDS011;66629;47.346;19.038;2023-03-14T02:55:48;12.45;;;7.32;;
77518;SDS011;66629;47.346;19.038;2023-03-14T02:58:13;10.30;;;7.53;;
77518;SDS011;66629;47.346;19.038;2023-03-14T03:00:39;9.30;;;5.75;;
77518;SDS011;66629;47.346;19.038;2023-03-14T03:03:05;8.90;;;5.88;;
77518;SDS011;66629;47.346;19.038;2023-03-14T03:05:33;10.98;;;7.60;;
77518;SDS011;66629;47.346;19.038;2023-03-14T03:07:59;9.82;;;6.63;;
77518;SDS011;66629;47.346;19.038;2023-03-14T03:10:25;14.20;;;7.70;;
77518;SDS011;66629;47.346;19.038;2023-03-14T03:12:51;14.02;;;8.65;;
77518;SDS011;66629;47.346;19.038;2023-03-14T03:15:17;12.50;;;6.85;;
77518;SDS011;66629;47.346;19.038;2023-03-14T03:17:43;12.73;;;7.88;;
77518;SDS011;66629;47.346;19.038;2023-03-14T03:20:08;11.80;;;7.05;;
77518;SDS011;66629;47.346;19.038;2023-03-14T03:22:38;11.93;;;6.50;;
77518;SDS011;66629;47.346;19.038;2023-03-14T03:25:04;12.43;;;6.53;;
77518;SDS011;66629;47.346;19.038;2023-03-14T03:27:31;10.73;;;6.72;;
77518;SDS011;66629;47.346;19.038;2023-03-14T03:29:58;11.13;;;7.00;;
77518;SDS011;66629;47.346;19.038;2023-03-14T03:32:23;13.40;;;7.82;;
77518;SDS011;66629;47.346;19.038;2023-03-14T03:34:49;9.18;;;6.20;;
77518;SDS011;66629;47.346;19.038;2023-03-14T03:37:14;8.90;;;5.40;;
77518;SDS011;66629;47.346;19.038;2023-03-14T03:39:40;9.25;;;5.68;;
77518;SDS011;66629;47.346;19.038;2023-03-14T03:42:05;7.72;;;4.53;;
77518;SDS011;66629;47.346;19.038;2023-03-14T03:44:31;10.60;;;6.05;;
77518;SDS011;66629;47.346;19.038;2023-03-14T03:46:56;11.70;;;6.50;;
77518;SDS011;66629;47.346;19.038;2023-03-14T03:49:21;15.52;;;7.40;;
77518;SDS011;66629;47.346;19.038;2023-03-14T03:51:47;11.07;;;6.50;;
77518;SDS011;66629;47.346;19.038;2023-03-14T03:54:12;11.90;;;7.15;;
77518;SDS011;66629;47.346;19.038;2023-03-14T03:56:38;10.18;;;6.43;;
77518;SDS011;66629;47.346;19.038;2023-03-14T03:59:03;12.32;;;7.18;;
77518;SDS011;66629;47.346;19.038;2023-03-14T04:01:29;13.18;;;6.90;;
77518;SDS011;66629;47.346;19.038;2023-03-14T04:03:54;9.82;;;6.30;;
77518;SDS011;66629;47.346;19.038;2023-03-14T04:06:20;10.95;;;6.07;;
77518;SDS011;66629;47.346;19.038;2023-03-14T04:08:45;10.82;;;7.05;;
77518;SDS011;66629;47.346;19.038;2023-03-14T04:11:10;15.35;;;6.88;;
77518;SDS011;66629;47.346;19.038;2023-03-14T04:13:36;14.85;;;7.28;;
77518;SDS011;66629;47.346;19.038;2023-03-14T04:16:01;11.68;;;6.32;;
77518;SDS011;66629;47.346;19.038;2023-03-14T04:18:27;10.82;;;6.88;;
77518;SDS011;66629;47.346;19.038;2023-03-14T04:20:55;10.60;;;7.05;;
77518;SDS011;66629;47.346;19.038;2023-03-14T04:23:21;9.68;;;6.18;;
77518;SDS011;66629;47.346;19.038;2023-03-14T04:25:51;10.98;;;7.22;;
77518;SDS011;66629;47.346;19.038;2023-03-14T04:28:17;9.40;;;5.25;;
77518;SDS011;66629;47.346;19.038;2023-03-14T04:30:43;10.65;;;6.72;;
77518;SDS011;66629;47.346;19.038;2023-03-14T04:33:08;11.88;;;5.90;;
77518;SDS011;66629;47.346;19.038;2023-03-14T04:35:34;13.85;;;6.18;;
77518;SDS011;66629;47.346;19.038;2023-03-14T04:38:00;14.23;;;6.30;;
77518;SDS011;66629;47.346;19.038;2023-03-14T04:40:26;11.00;;;6.53;;
77518;SDS011;66629;47.346;19.038;2023-03-14T04:42:51;10.27;;;6.85;;
77518;SDS011;66629;47.346;19.038;2023-03-14T04:45:17;13.27;;;6.82;;
77518;SDS011;66629;47.346;19.038;2023-03-14T04:47:42;14.73;;;6.82;;
77518;SDS011;66629;47.346;19.038;2023-03-14T04:50:08;13.30;;;6.80;;
77518;SDS011;66629;47.346;19.038;2023-03-14T04:52:34;9.52;;;6.25;;
77518;SDS011;66629;47.346;19.038;2023-03-14T04:54:59;10.00;;;5.85;;
77518;SDS011;66629;47.346;19.038;2023-03-14T04:57:25;13.90;;;6.43;;
77518;SDS011;66629;47.346;19.038;2023-03-14T04:59:51;10.63;;;6.97;;
77518;SDS011;66629;47.346;19.038;2023-03-14T05:02:16;13.95;;;6.30;;
77518;SDS011;66629;47.346;19.038;2023-03-14T05:04:41;9.77;;;6.35;;
77518;SDS011;66629;47.346;19.038;2023-03-14T05:07:07;8.43;;;6.00;;
77518;SDS011;66629;47.346;19.038;2023-03-14T05:09:32;10.15;;;5.75;;
77518;SDS011;66629;47.346;19.038;2023-03-14T05:11:58;11.40;;;6.35;;
77518;SDS011;66629;47.346;19.038;2023-03-14T05:14:23;10.45;;;5.10;;
77518;SDS011;66629;47.346;19.038;2023-03-14T05:16:48;10.02;;;5.78;;
77518;SDS011;66629;47.346;19.038;2023-03-14T05:19:14;11.07;;;6.63;;
77518;SDS011;66629;47.346;19.038;2023-03-14T05:21:39;10.13;;;5.80;;
77518;SDS011;66629;47.346;19.038;2023-03-14T05:24:05;14.48;;;5.90;;
77518;SDS011;66629;47.346;19.038;2023-03-14T05:26:30;8.55;;;5.18;;
77518;SDS011;66629;47.346;19.038;2023-03-14T05:28:56;11.73;;;6.13;;
77518;SDS011;66629;47.346;19.038;2023-03-14T05:31:21;10.10;;;5.38;;
77518;SDS011;66629;47.346;19.038;2023-03-14T05:33:47;11.10;;;6.47;;
77518;SDS011;66629;47.346;19.038;2023-03-14T05:36:12;14.02;;;6.22;;
77518;SDS011;66629;47.346;19.038;2023-03-14T05:38:37;9.43;;;5.55;;
77518;SDS011;66629;47.346;19.038;2023-03-14T05:41:03;10.38;;;5.75;;
77518;SDS011;66629;47.346;19.038;2023-03-14T05:43:29;11.40;;;5.75;;
77518;SDS011;66629;47.346;19.038;2023-03-14T05:45:54;10.60;;;6.20;;
77518;SDS011;66629;47.346;19.038;2023-03-14T05:48:20;8.63;;;4.95;;
77518;SDS011;66629;47.346;19.038;2023-03-14T05:50:46;10.43;;;5.10;;
77518;SDS011;66629;47.346;19.038;2023-03-14T05:53:12;8.13;;;4.75;;
77518;SDS011;66629;47.346;19.038;2023-03-14T05:55:38;8.32;;;4.93;;
77518;SDS011;66629;47.346;19.038;2023-03-14T05:58:04;9.50;;;5.03;;
77518;SDS011;66629;47.346;19.038;2023-03-14T06:00:29;10.88;;;5.88;;
77518;SDS011;66629;47.346;19.038;2023-03-14T06:02:55;10.32;;;5.90;;
77518;SDS011;66629;47.346;19.038;2023-03-14T06:05:20;9.02;;;5.82;;
77518;SDS011;66629;47.346;19.038;2023-03-14T06:07:45;12.27;;;6.50;;
77518;SDS011;66629;47.346;19.038;2023-03-14T06:10:11;9.55;;;5.28;;
77518;SDS011;66629;47.346;19.038;2023-03-14T06:12:36;13.25;;;6.15;;
77518;SDS011;66629;47.346;19.038;2023-03-14T06:15:02;9.90;;;6.38;;
77518;SDS011;66629;47.346;19.038;2023-03-14T06:17:27;14.27;;;7.28;;
77518;SDS011;66629;47.346;19.038;2023-03-14T06:19:53;8.52;;;5.65;;
77518;SDS011;66629;47.346;19.038;2023-03-14T06:22:18;9.55;;;4.68;;
77518;SDS011;66629;47.346;19.038;2023-03-14T06:24:44;9.95;;;5.78;;
77518;SDS011;66629;47.346;19.038;2023-03-14T06:27:10;16.10;;;5.90;;
77518;SDS011;66629;47.346;19.038;2023-03-14T06:29:35;10.38;;;5.60;;
77518;SDS011;66629;47.346;19.038;2023-03-14T06:32:01;10.50;;;6.65;;
77518;SDS011;66629;47.346;19.038;2023-03-14T06:34:26;8.63;;;5.43;;
77518;SDS011;66629;47.346;19.038;2023-03-14T06:36:51;13.02;;;6.57;;
77518;SDS011;66629;47.346;19.038;2023-03-14T06:39:17;8.63;;;5.40;;
77518;SDS011;66629;47.346;19.038;2023-03-14T06:41:42;13.50;;;6.13;;
77518;SDS011;66629;47.346;19.038;2023-03-14T06:44:08;10.38;;;5.32;;
77518;SDS011;66629;47.346;19.038;2023-03-14T06:46:33;11.50;;;6.55;;
77518;SDS011;66629;47.346;19.038;2023-03-14T06:48:59;10.52;;;6.07;;
77518;SDS011;66629;47.346;19.038;2023-03-14T06:51:24;11.85;;;6.10;;
77518;SDS011;66629;47.346;19.038;2023-03-14T06:53:50;12.85;;;6.15;;
77518;SDS011;66629;47.346;19.038;2023-03-14T06:56:15;11.07;;;6.15;;
77518;SDS011;66629;47.346;19.038;2023-03-14T06:58:40;9.57;;;5.40;;
77518;SDS011;66629;47.346;19.038;2023-03-14T07:01:10;11.93;;;6.32;;
77518;SDS011;66629;47.346;19.038;2023-03-14T07:03:50;12.52;;;5.93;;
77518;SDS011;66629;47.346;19.038;2023-03-14T07:06:15;10.85;;;5.63;;
77518;SDS011;66629;47.346;19.038;2023-03-14T07:08:41;13.43;;;6.90;;
77518;SDS011;66629;47.346;19.038;2023-03-14T07:11:07;11.27;;;6.18;;
77518;SDS011;66629;47.346;19.038;2023-03-14T07:13:32;12.32;;;6.07;;
77518;SDS011;66629;47.346;19.038;2023-03-14T07:15:58;15.02;;;5.35;;
77518;SDS011;66629;47.346;19.038;2023-03-14T07:18:23;15.35;;;5.68;;
77518;SDS011;66629;47.346;19.038;2023-03-14T07:20:49;11.98;;;6.65;;
77518;SDS011;66629;47.346;19.038;2023-03-14T07:23:14;14.20;;;5.32;;
77518;SDS011;66629;47.346;19.038;2023-03-14T07:25:39;9.85;;;5.40;;
77518;SDS011;66629;47.346;19.038;2023-03-14T07:28:05;9.40;;;5.60;;
77518;SDS011;66629;47.346;19.038;2023-03-14T07:30:31;11.45;;;6.35;;
77518;SDS011;66629;47.346;19.038;2023-03-14T07:32:56;11.68;;;5.95;;
77518;SDS011;66629;47.346;19.038;2023-03-14T07:35:22;11.68;;;6.25;;
77518;SDS011;66629;47.346;19.038;2023-03-14T07:37:47;15.07;;;6.07;;
77518;SDS011;66629;47.346;19.038;2023-03-14T07:40:13;16.02;;;6.22;;
77518;SDS011;66629;47.346;19.038;2023-03-14T07:42:40;13.02;;;6.00;;
77518;SDS011;66629;47.346;19.038;2023-03-14T07:45:06;12.82;;;5.15;;
77518;SDS011;66629;47.346;19.038;2023-03-14T07:47:33;11.57;;;5.95;;
77518;SDS011;66629;47.346;19.038;2023-03-14T07:49:58;12.88;;;5.47;;
77518;SDS011;66629;47.346;19.038;2023-03-14T07:52:24;13.07;;;6.20;;
77518;SDS011;66629;47.346;19.038;2023-03-14T07:54:49;8.82;;;5.18;;
77518;SDS011;66629;47.346;19.038;2023-03-14T07:57:15;11.77;;;5.07;;
77518;SDS011;66629;47.346;19.038;2023-03-14T07:59:41;11.25;;;6.95;;
77518;SDS011;66629;47.346;19.038;2023-03-14T08:02:08;13.05;;;5.80;;
77518;SDS011;66629;47.346;19.038;2023-03-14T08:04:36;13.82;;;6.22;;
77518;SDS011;66629;47.346;19.038;2023-03-14T08:07:02;16.92;;;4.65;;
77518;SDS011;66629;47.346;19.038;2023-03-14T08:09:28;7.75;;;5.15;;
77518;SDS011;66629;47.346;19.038;2023-03-14T08:11:53;15.95;;;5.57;;
77518;SDS011;66629;47.346;19.038;2023-03-14T08:14:19;11.55;;;5.55;;
77518;SDS011;66629;47.346;19.038;2023-03-14T08:16:45;10.65;;;5.43;;
77518;SDS011;66629;47.346;19.038;2023-03-14T08:19:10;12.02;;;5.55;;
77518;SDS011;66629;47.346;19.038;2023-03-14T08:21:36;14.98;;;5.63;;
77518;SDS011;66629;47.346;19.038;2023-03-14T08:24:01;18.10;;;5.13;;
77518;SDS011;66629;47.346;19.038;2023-03-14T08:26:27;10.30;;;5.20;;
77518;SDS011;66629;47.346;19.038;2023-03-14T08:28:52;11.63;;;5.65;;
77518;SDS011;66629;47.346;19.038;2023-03-14T08:31:18;16.70;;;5.25;;
77518;SDS011;66629;47.346;19.038;2023-03-14T08:33:43;8.77;;;4.85;;
77518;SDS011;66629;47.346;19.038;2023-03-14T08:36:09;8.73;;;5.10;;
77518;SDS011;66629;47.346;19.038;2023-03-14T08:38:35;8.40;;;4.45;;
77518;SDS011;66629;47.346;19.038;2023-03-14T08:41:01;10.13;;;5.30;;
77518;SDS011;66629;47.346;19.038;2023-03-14T08:43:28;8.45;;;4.60;;
77518;SDS011;66629;47.346;19.038;2023-03-14T08:45:57;7.80;;;4.43;;
77518;SDS011;66629;47.346;19.038;2023-03-14T08:48:23;9.18;;;4.15;;
77518;SDS011;66629;47.346;19.038;2023-03-14T08:50:49;9.20;;;4.10;;
77518;SDS011;66629;47.346;19.038;2023-03-14T08:53:14;9.85;;;4.55;;
77518;SDS011;66629;47.346;19.038;2023-03-14T08:55:39;7.75;;;4.82;;
77518;SDS011;66629;47.346;19.038;2023-03-14T08:58:05;8.43;;;4.30;;
77518;SDS011;66629;47.346;19.038;2023-03-14T09:00:30;8.75;;;4.13;;
77518;SDS011;66629;47.346;19.038;2023-03-14T09:02:56;11.38;;;4.65;;
77518;SDS011;66629;47.346;19.038;2023-03-14T09:05:21;11.93;;;4.50;;
77518;SDS011;66629;47.346;19.038;2023-03-14T09:07:47;9.18;;;4.13;;
77518;SDS011;66629;47.346;19.038;2023-03-14T09:10:12;12.65;;;3.67;;
77518;SDS011;66629;47.346;19.038;2023-03-14T09:12:38;10.82;;;3.85;;
77518;SDS011;66629;47.346;19.038;2023-03-14T09:15:03;12.85;;;5.30;;
77518;SDS011;66629;47.346;19.038;2023-03-14T09:17:29;8.30;;;4.93;;
77518;SDS011;66629;47.346;19.038;2023-03-14T09:19:54;11.50;;;4.68;;
77518;SDS011;66629;47.346;19.038;2023-03-14T09:22:20;9.10;;;5.35;;
77518;SDS011;66629;47.346;19.038;2023-03-14T09:24:46;12.00;;;5.00;;
77518;SDS011;66629;47.346;19.038;2023-03-14T09:27:12;10.27;;;4.55;;
77518;SDS011;66629;47.346;19.038;2023-03-14T09:29:38;7.57;;;4.00;;
77518;SDS011;66629;47.346;19.038;2023-03-14T09:32:03;8.88;;;4.32;;
77518;SDS011;66629;47.346;19.038;2023-03-14T09:34:29;14.50;;;5.07;;
77518;SDS011;66629;47.346;19.038;2023-03-14T09:36:54;15.10;;;4.47;;
77518;SDS011;66629;47.346;19.038;2023-03-14T09:39:20;8.00;;;4.53;;
77518;SDS011;66629;47.346;19.038;2023-03-14T09:41:46;8.38;;;4.00;;
77518;SDS011;66629;47.346;19.038;2023-03-14T09:47:06;9.98;;;4.38;;
77518;SDS011;66629;47.346;19.038;2023-03-14T09:49:41;13.55;;;4.90;;
77518;SDS011;66629;47.346;19.038;2023-03-14T09:54:59;14.95;;;4.45;;
77518;SDS011;66629;47.346;19.038;2023-03-14T09:57:28;9.47;;;4.53;;
77518;SDS011;66629;47.346;19.038;2023-03-14T09:59:58;12.73;;;4.20;;
77518;SDS011;66629;47.346;19.038;2023-03-14T10:02:37;8.47;;;4.50;;
77518;SDS011;66629;47.346;19.038;2023-03-14T10:05:05;11.55;;;4.40;;
77518;SDS011;66629;47.346;19.038;2023-03-14T10:07:39;8.35;;;3.72;;
77518;SDS011;66629;47.346;19.038;2023-03-14T10:10:08;7.90;;;3.30;;
77518;SDS011;66629;47.346;19.038;2023-03-14T10:12:36;8.90;;;3.78;;
77518;SDS011;66629;47.346;19.038;2023-03-14T10:15:07;12.93;;;4.15;;
77518;SDS011;66629;47.346;19.038;2023-03-14T10:17:38;12.38;;;4.13;;
77518;SDS011;66629;47.346;19.038;2023-03-14T10:22:52;7.80;;;3.40;;
77518;SDS011;66629;47.346;19.038;2023-03-14T10:25:26;8.48;;;3.80;;
77518;SDS011;66629;47.346;19.038;2023-03-14T10:27:53;8.60;;;4.35;;
77518;SDS011;66629;47.346;19.038;2023-03-14T10:33:10;11.73;;;4.00;;
77518;SDS011;66629;47.346;19.038;2023-03-14T10:35:43;8.60;;;2.42;;
77518;SDS011;66629;47.346;19.038;2023-03-14T10:38:14;8.30;;;2.17;;
77518;SDS011;66629;47.346;19.038;2023-03-14T10:40:46;6.18;;;2.15;;
77518;SDS011;66629;47.346;19.038;2023-03-14T10:43:16;5.37;;;1.47;;
77518;SDS011;66629;47.346;19.038;2023-03-14T10:45:47;7.40;;;1.40;;
77518;SDS011;66629;47.346;19.038;2023-03-14T10:50:49;3.55;;;1.60;;
77518;SDS011;66629;47.346;19.038;2023-03-14T10:53:20;4.72;;;1.80;;
77518;SDS011;66629;47.346;19.038;2023-03-14T10:55:46;8.30;;;1.83;;
77518;SDS011;66629;47.346;19.038;2023-03-14T10:58:23;5.18;;;1.70;;
77518;SDS011;66629;47.346;19.038;2023-03-14T11:03:38;5.53;;;1.90;;
77518;SDS011;66629;47.346;19.038;2023-03-14T11:08:54;11.40;;;2.60;;
77518;SDS011;66629;47.346;19.038;2023-03-14T11:11:36;4.45;;;1.60;;
77518;SDS011;66629;47.346;19.038;2023-03-14T11:19:15;10.32;;;2.05;;
77518;SDS011;66629;47.346;19.038;2023-03-14T11:21:51;3.25;;;1.40;;
77518;SDS011;66629;47.346;19.038;2023-03-14T11:24:46;2.97;;;1.40;;
77518;SDS011;66629;47.346;19.038;2023-03-14T11:27:48;4.13;;;1.70;;
77518;SDS011;66629;47.346;19.038;2023-03-14T11:30:18;5.63;;;1.52;;
77518;SDS011;66629;47.346;19.038;2023-03-14T11:35:24;3.20;;;1.30;;
77518;SDS011;66629;47.346;19.038;2023-03-14T11:43:04;7.43;;;1.60;;
77518;SDS011;66629;47.346;19.038;2023-03-14T11:45:39;2.80;;;1.50;;
77518;SDS011;66629;47.346;19.038;2023-03-14T11:50:52;7.40;;;1.85;;
77518;SDS011;66629;47.346;19.038;2023-03-14T11:56:13;5.28;;;1.50;;
77518;SDS011;66629;47.346;19.038;2023-03-14T11:58:57;6.70;;;1.38;;
77518;SDS011;66629;47.346;19.038;2023-03-14T12:01:31;4.50;;;1.95;;
77518;SDS011;66629;47.346;19.038;2023-03-14T12:04:12;4.63;;;1.45;;
77518;SDS011;66629;47.346;19.038;2023-03-14T12:06:50;5.70;;;1.65;;
77518;SDS011;66629;47.346;19.038;2023-03-14T12:09:19;4.25;;;1.40;;
77518;SDS011;66629;47.346;19.038;2023-03-14T12:14:44;3.30;;;1.38;;
77518;SDS011;66629;47.346;19.038;2023-03-14T12:22:33;5.85;;;2.00;;
77518;SDS011;66629;47.346;19.038;2023-03-14T12:27:47;2.95;;;1.58;;
77518;SDS011;66629;47.346;19.038;2023-03-14T12:30:34;4.28;;;1.60;;
77518;SDS011;66629;47.346;19.038;2023-03-14T12:35:38;1.90;;;1.50;;
77518;SDS011;66629;47.346;19.038;2023-03-14T12:38:12;5.00;;;1.45;;
77518;SDS011;66629;47.346;19.038;2023-03-14T12:43:28;6.07;;;1.67;;
77518;SDS011;66629;47.346;19.038;2023-03-14T12:46:29;9.30;;;1.73;;
77518;SDS011;66629;47.346;19.038;2023-03-14T12:51:36;3.60;;;1.50;;
77518;SDS011;66629;47.346;19.038;2023-03-14T12:56:40;3.05;;;1.60;;
77518;SDS011;66629;47.346;19.038;2023-03-14T13:01:54;3.78;;;1.70;;
77518;SDS011;66629;47.346;19.038;2023-03-14T13:04:45;4.32;;;2.00;;
77518;SDS011;66629;47.346;19.038;2023-03-14T13:10:16;6.25;;;3.28;;
77518;SDS011;66629;47.346;19.038;2023-03-14T13:12:56;4.47;;;2.25;;
77518;SDS011;66629;47.346;19.038;2023-03-14T13:15:23;5.73;;;2.00;;
77518;SDS011;66629;47.346;19.038;2023-03-14T13:17:53;4.85;;;1.90;;
77518;SDS011;66629;47.346;19.038;2023-03-14T13:20:22;3.70;;;1.90;;
77518;SDS011;66629;47.346;19.038;2023-03-14T13:22:53;6.75;;;2.08;;
77518;SDS011;66629;47.346;19.038;2023-03-14T13:25:19;4.07;;;1.80;;
77518;SDS011;66629;47.346;19.038;2023-03-14T13:27:46;3.42;;;1.90;;
77518;SDS011;66629;47.346;19.038;2023-03-14T13:32:43;4.43;;;2.10;;
77518;SDS011;66629;47.346;19.038;2023-03-14T13:35:14;5.20;;;1.90;;
77518;SDS011;66629;47.346;19.038;2023-03-14T13:38:02;5.18;;;1.90;;
77518;SDS011;66629;47.346;19.038;2023-03-14T13:40:31;6.80;;;2.85;;
77518;SDS011;66629;47.346;19.038;2023-03-14T13:43:05;6.15;;;2.00;;
77518;SDS011;66629;47.346;19.038;2023-03-14T13:48:13;3.90;;;1.70;;
77518;SDS011;66629;47.346;19.038;2023-03-14T13:50:43;3.50;;;1.70;;
77518;SDS011;66629;47.346;19.038;2023-03-14T13:53:11;3.08;;;1.50;;
77518;SDS011;66629;47.346;19.038;2023-03-14T13:55:37;5.13;;;1.80;;
77518;SDS011;66629;47.346;19.038;2023-03-14T13:58:02;7.57;;;2.00;;
77518;SDS011;66629;47.346;19.038;2023-03-14T14:00:27;7.13;;;2.53;;
77518;SDS011;66629;47.346;19.038;2023-03-14T14:02:54;4.38;;;2.60;;
77518;SDS011;66629;47.346;19.038;2023-03-14T14:05:21;7.43;;;2.85;;
77518;SDS011;66629;47.346;19.038;2023-03-14T14:07:48;7.22;;;3.15;;
77518;SDS011;66629;47.346;19.038;2023-03-14T14:10:15;5.90;;;2.92;;
77518;SDS011;66629;47.346;19.038;2023-03-14T14:12:42;5.80;;;2.72;;
77518;SDS011;66629;47.346;19.038;2023-03-14T14:17:57;7.15;;;3.13;;
77518;SDS011;66629;47.346;19.038;2023-03-14T14:20:29;6.60;;;2.50;;
77518;SDS011;66629;47.346;19.038;2023-03-14T14:23:03;6.80;;;2.55;;
77518;SDS011;66629;47.346;19.038;2023-03-14T14:25:30;7.40;;;2.97;;
77518;SDS011;66629;47.346;19.038;2023-03-14T14:27:56;5.00;;;2.55;;
77518;SDS011;66629;47.346;19.038;2023-03-14T14:32:52;7.75;;;2.58;;
77518;SDS011;66629;47.346;19.038;2023-03-14T14:35:34;9.88;;;2.90;;
77518;SDS011;66629;47.346;19.038;2023-03-14T14:38:00;13.60;;;3.60;;
77518;SDS011;66629;47.346;19.038;2023-03-14T14:40:28;9.93;;;3.25;;
77518;SDS011;66629;47.346;19.038;2023-03-14T14:42:55;6.20;;;2.97;;
77518;SDS011;66629;47.346;19.038;2023-03-14T14:45:28;12.65;;;3.20;;
77518;SDS011;66629;47.346;19.038;2023-03-14T14:48:09;11.88;;;3.50;;
77518;SDS011;66629;47.346;19.038;2023-03-14T14:50:37;9.93;;;3.28;;
77518;SDS011;66629;47.346;19.038;2023-03-14T14:53:49;8.38;;;3.45;;
77518;SDS011;66629;47.346;19.038;2023-03-14T14:55:57;6.88;;;3.47;;
77518;SDS011;66629;47.346;19.038;2023-03-14T14:58:26;8.45;;;3.83;;
77518;SDS011;66629;47.346;19.038;2023-03-14T15:00:53;8.65;;;3.42;;
77518;SDS011;66629;47.346;19.038;2023-03-14T15:03:30;7.00;;;3.70;;
77518;SDS011;66629;47.346;19.038;2023-03-14T15:05:57;7.50;;;3.88;;
77518;SDS011;66629;47.346;19.038;2023-03-14T15:08:26;6.28;;;3.42;;
77518;SDS011;66629;47.346;19.038;2023-03-14T15:10:53;8.82;;;3.38;;
77518;SDS011;66629;47.346;19.038;2023-03-14T15:13:19;12.60;;;3.95;;
77518;SDS011;66629;47.346;19.038;2023-03-14T15:15:44;11.35;;;4.40;;
77518;SDS011;66629;47.346;19.038;2023-03-14T15:18:15;12.27;;;3.97;;
77518;SDS011;66629;47.346;19.038;2023-03-14T15:20:45;7.80;;;3.58;;
77518;SDS011;66629;47.346;19.038;2023-03-14T15:23:11;10.52;;;3.05;;
77518;SDS011;66629;47.346;19.038;2023-03-14T15:25:38;10.20;;;3.78;;
77518;SDS011;66629;47.346;19.038;2023-03-14T15:28:14;13.30;;;3.38;;
77518;SDS011;66629;47.346;19.038;2023-03-14T15:30:42;9.05;;;3.40;;
77518;SDS011;66629;47.346;19.038;2023-03-14T15:33:08;10.02;;;3.42;;
77518;SDS011;66629;47.346;19.038;2023-03-14T15:35:34;10.57;;;3.80;;
77518;SDS011;66629;47.346;19.038;2023-03-14T15:38:02;6.80;;;3.50;;
77518;SDS011;66629;47.346;19.038;2023-03-14T15:40:28;11.88;;;5.43;;
77518;SDS011;66629;47.346;19.038;2023-03-14T15:42:54;12.98;;;4.90;;
77518;SDS011;66629;47.346;19.038;2023-03-14T15:45:19;18.58;;;7.28;;
77518;SDS011;66629;47.346;19.038;2023-03-14T15:47:44;15.02;;;6.82;;
77518;SDS011;66629;47.346;19.038;2023-03-14T15:50:10;13.85;;;6.00;;
77518;SDS011;66629;47.346;19.038;2023-03-14T15:52:36;14.00;;;7.78;;